Time;durP1;ratioP1;P1;durP2;ratioP2;P2;SDS_P1;SDS_P2;PMS_P1;PMS_P2;Temp;Humidity;BMP_temperature;BMP_pressure;BME280_temperature;BME280_humidity;BME280_pressure;Samples;Min_cycle;Max_cycle;Signal;HPM_P1;HPM_P2
2022/08/28 00:00:42;;;;;;;12.63;6.68;;;20.50;94.10;;;;;;5065161;28;20037;-66
2022/08/28 00:03:10;;;;;;;15.23;6.55;;;20.50;94.10;;;;;;5033590;28;20022;-65
2022/08/28 00:05:38;;;;;;;8.90;5.78;;;20.50;94.10;;;;;;5032135;28;20540;-65
2022/08/28 00:08:04;;;;;;;8.73;6.38;;;20.50;94.10;;;;;;5033441;28;20141;-65
2022/08/28 00:10:30;;;;;;;9.45;6.03;;;20.50;94.10;;;;;;5064870;28;20159;-65
2022/08/28 00:12:56;;;;;;;9.45;6.32;;;20.50;94.10;;;;;;5065467;28;20116;-65
2022/08/28 00:15:32;;;;;;;10.52;5.97;;;20.50;94.10;;;;;;5064832;28;20107;-65
2022/08/28 00:17:59;;;;;;;9.32;6.30;;;20.50;94.10;;;;;;5033191;28;20030;-65
2022/08/28 00:20:28;;;;;;;9.32;6.45;;;20.50;94.10;;;;;;5032420;28;20044;-65
2022/08/28 00:22:54;;;;;;;13.45;6.70;;;20.50;94.10;;;;;;5064520;28;20038;-66
2022/08/28 00:25:23;;;;;;;13.60;6.70;;;20.50;94.10;;;;;;5032916;28;20041;-65
2022/08/28 00:27:52;;;;;;;10.45;6.50;;;20.50;94.10;;;;;;5065082;28;20025;-65
2022/08/28 00:30:47;;;;;;;13.10;6.50;;;20.50;94.10;;;;;;5033191;28;20106;-65
2022/08/28 00:33:18;;;;;;;12.02;6.82;;;20.50;94.10;;;;;;5031303;28;20395;-66
2022/08/28 00:35:45;;;;;;;10.93;7.35;;;20.50;94.10;;;;;;5031233;28;20022;-65
2022/08/28 00:38:12;;;;;;;8.30;5.65;;;20.50;94.10;;;;;;5033075;28;20076;-65
2022/08/28 00:40:40;;;;;;;11.90;6.25;;;20.50;94.20;;;;;;5032869;28;20039;-65
2022/08/28 00:43:06;;;;;;;14.52;6.15;;;20.50;94.20;;;;;;5032929;28;20021;-65
2022/08/28 00:45:33;;;;;;;10.55;6.50;;;20.50;94.20;;;;;;5031837;28;20467;-65
2022/08/28 00:48:00;;;;;;;8.80;5.85;;;20.50;94.20;;;;;;5031067;28;20529;-65
2022/08/28 00:52:04;;;;;;;10.07;6.75;;;20.50;94.20;;;;;;5032160;28;20112;-65
2022/08/28 00:53:21;;;;;;;11.52;6.85;;;20.50;94.20;;;;;;5032804;28;20033;-65
2022/08/28 00:55:48;;;;;;;8.52;5.72;;;20.50;94.20;;;;;;5032079;28;20068;-65
2022/08/28 00:58:14;;;;;;;11.43;6.65;;;20.50;94.20;;;;;;5031624;28;20025;-65
2022/08/28 01:00:41;;;;;;;14.23;6.68;;;20.50;94.20;;;;;;5064167;28;20394;-65
2022/08/28 01:03:07;;;;;;;10.80;7.20;;;20.40;94.20;;;;;;5031870;28;20032;-65
2022/08/28 01:05:34;;;;;;;12.93;7.55;;;20.50;94.20;;;;;;5031156;28;20120;-65
2022/08/28 01:08:03;;;;;;;12.15;6.05;;;20.50;94.20;;;;;;5032160;28;20029;-65
2022/08/28 01:10:31;;;;;;;11.75;7.25;;;20.50;94.20;;;;;;5032215;28;20025;-65
2022/08/28 01:12:59;;;;;;;13.38;7.22;;;20.40;94.20;;;;;;5031975;28;20476;-65
2022/08/28 01:15:31;;;;;;;14.40;7.63;;;20.50;94.20;;;;;;5033142;28;20074;-63
2022/08/28 01:18:01;;;;;;;13.52;7.28;;;20.50;94.20;;;;;;5034459;28;20053;-63
2022/08/28 01:24:13;;;;;;;9.02;6.45;;;20.40;94.20;;;;;;5035425;28;20043;-63
2022/08/28 01:26:48;;;;;;;;;;;20.40;94.20;;;;;;5034981;28;20025;-65
2022/08/28 01:29:13;;;;;;;13.40;7.00;;;20.40;94.20;;;;;;5033726;28;19905;-65
2022/08/28 01:31:40;;;;;;;12.57;7.45;;;20.40;94.60;;;;;;5032185;28;20505;-65
2022/08/28 01:34:07;;;;;;;11.88;6.80;;;20.40;94.20;;;;;;5031205;28;20433;-65
2022/08/28 01:36:33;;;;;;;10.52;6.75;;;20.40;94.20;;;;;;5030762;28;20037;-65
2022/08/28 01:39:21;;;;;;;14.02;7.55;;;20.40;94.30;;;;;;5064441;28;20029;-65
2022/08/28 01:41:50;;;;;;;11.73;7.38;;;20.40;94.20;;;;;;5031895;28;20109;-65
2022/08/28 01:44:23;;;;;;;10.80;6.07;;;20.40;94.60;;;;;;5031469;28;20029;-65
2022/08/28 01:46:56;;;;;;;11.02;6.45;;;20.40;94.30;;;;;;5031080;28;20033;-65
2022/08/28 01:49:23;;;;;;;14.43;7.13;;;20.40;94.30;;;;;;5031998;28;20100;-65
2022/08/28 01:58:54;;;;;;;9.68;7.05;;;20.40;94.30;;;;;;5032421;28;20468;-65
2022/08/28 02:01:20;;;;;;;14.32;7.18;;;20.40;94.30;;;;;;5030145;28;20025;-65
2022/08/28 02:03:47;;;;;;;9.80;6.38;;;20.40;94.30;;;;;;5012502;28;20087;-65
2022/08/28 02:06:14;;;;;;;13.15;6.65;;;20.40;94.30;;;;;;5027202;28;20029;-65
2022/08/28 02:08:40;;;;;;;9.07;6.03;;;20.40;94.30;;;;;;5028666;28;20037;-65
2022/08/28 02:11:07;;;;;;;11.05;7.00;;;20.40;94.30;;;;;;5028360;28;20060;-65
2022/08/28 02:13:35;;;;;;;15.23;7.13;;;20.40;94.30;;;;;;5011475;28;20095;-65
2022/08/28 02:16:02;;;;;;;9.50;6.63;;;20.40;94.30;;;;;;5028015;28;20486;-65
2022/08/28 02:18:28;;;;;;;10.98;7.35;;;20.40;94.30;;;;;;5028613;28;20087;-65
2022/08/28 02:20:54;;;;;;;13.45;7.00;;;20.40;94.30;;;;;;5027346;28;20538;-65
2022/08/28 02:23:19;;;;;;;13.88;8.05;;;20.40;94.30;;;;;;5028308;28;20044;-65
2022/08/28 02:25:45;;;;;;;14.15;7.45;;;20.40;94.30;;;;;;5012523;28;20057;-65
2022/08/28 02:31:39;;;;;;;15.20;7.85;;;20.40;94.30;;;;;;5032994;28;20079;-65
2022/08/28 02:34:05;;;;;;;14.80;7.30;;;20.40;94.30;;;;;;5030657;28;20487;-65
2022/08/28 02:36:32;;;;;;;14.02;8.88;;;20.40;94.40;;;;;;5029103;28;20060;-65
2022/08/28 02:38:58;;;;;;;17.23;9.00;;;20.40;94.30;;;;;;5062309;28;20043;-65
2022/08/28 02:41:24;;;;;;;13.60;8.48;;;20.40;94.40;;;;;;5030289;28;20025;-66
2022/08/28 02:43:50;;;;;;;19.92;8.05;;;20.40;94.30;;;;;;5030509;28;20036;-66
2022/08/28 02:46:15;;;;;;;16.70;8.55;;;20.40;94.30;;;;;;5061963;28;20495;-65
2022/08/28 02:48:41;;;;;;;14.38;8.68;;;20.40;94.30;;;;;;5030637;28;20163;-65
2022/08/28 02:51:12;;;;;;;13.55;8.75;;;20.40;94.40;;;;;;5061147;28;20624;-65
2022/08/28 02:53:38;;;;;;;;;;;20.40;94.40;;;;;;5030718;28;20163;-65
2022/08/28 02:56:05;;;;;;;21.08;8.77;;;20.40;94.30;;;;;;5028228;28;20000;-65
2022/08/28 02:58:32;;;;;;;14.55;8.65;;;20.40;94.70;;;;;;5062608;28;20384;-65
2022/08/28 03:01:03;;;;;;;20.45;9.68;;;20.40;94.40;;;;;;5030011;28;20518;-65
2022/08/28 03:03:30;;;;;;;13.70;8.68;;;20.40;94.40;;;;;;5029134;28;20471;-65
2022/08/28 03:05:58;;;;;;;17.25;9.30;;;20.40;94.40;;;;;;5028664;28;20033;-65
2022/08/28 03:08:24;;;;;;;18.70;8.65;;;20.40;94.40;;;;;;5062273;28;20030;-66
2022/08/28 03:10:50;;;;;;;17.15;9.07;;;20.40;94.40;;;;;;5029791;28;20034;-66
2022/08/28 03:13:17;;;;;;;16.30;8.77;;;20.40;94.40;;;;;;5030138;28;20047;-65
2022/08/28 03:15:46;;;;;;;17.45;8.00;;;20.40;94.40;;;;;;5029426;28;20036;-65
2022/08/28 03:18:12;;;;;;;16.80;8.52;;;20.40;94.40;;;;;;5061963;28;20022;-65
2022/08/28 03:20:39;;;;;;;14.52;7.97;;;20.40;94.40;;;;;;5061928;28;20037;-65
2022/08/28 03:25:50;;;;;;;15.68;8.98;;;20.40;94.40;;;;;;5029518;28;20175;-66
2022/08/28 03:28:16;;;;;;;16.95;8.93;;;20.40;94.40;;;;;;5061956;28;20056;-65
2022/08/28 03:30:41;;;;;;;18.42;8.52;;;20.40;94.40;;;;;;5061951;28;20474;-66
2022/08/28 03:33:07;;;;;;;19.55;8.63;;;20.40;94.40;;;;;;5030074;28;20029;-65
2022/08/28 03:35:33;;;;;;;16.73;8.73;;;20.40;94.40;;;;;;5029444;28;20421;-66
2022/08/28 04:26:08;;;;;;;19.52;10.13;;;20.40;94.50;;;;;;5052760;28;20513;-67
2022/08/28 04:28:35;;;;;;;14.65;8.98;;;20.40;94.50;;;;;;5049198;28;20033;-67
2022/08/28 04:31:01;;;;;;;19.98;10.25;;;20.40;94.50;;;;;;5048605;28;20411;-67
2022/08/28 04:33:28;;;;;;;13.55;8.02;;;20.40;94.50;;;;;;5049230;28;20031;-67
2022/08/28 04:35:54;;;;;;;19.05;9.80;;;20.40;94.50;;;;;;5048847;28;20277;-66
2022/08/28 04:38:19;;;;;;;17.33;9.18;;;20.40;94.50;;;;;;5051105;28;20029;-67
2022/08/28 04:40:45;;;;;;;20.83;9.15;;;20.40;94.50;;;;;;5051799;28;20390;-67
2022/08/28 04:43:11;;;;;;;14.00;8.45;;;20.30;94.50;;;;;;5051689;28;20045;-67
2022/08/28 04:45:42;;;;;;;20.13;9.23;;;20.40;94.50;;;;;;5033595;28;20112;-67
2022/08/28 04:48:11;;;;;;;14.70;9.25;;;20.40;94.80;;;;;;5051773;28;20033;-67
2022/08/28 04:50:43;;;;;;;21.35;10.18;;;20.40;94.50;;;;;;5051763;28;20029;-67
2022/08/28 04:53:10;;;;;;;16.25;9.55;;;20.40;94.50;;;;;;5052589;28;20490;-67
2022/08/28 04:55:47;;;;;;;15.85;9.35;;;20.30;94.50;;;;;;5071337;28;20021;-67
2022/08/28 04:58:14;;;;;;;19.45;9.25;;;20.30;94.50;;;;;;5071416;28;20040;-67
2022/08/28 05:00:45;;;;;;;17.42;10.65;;;20.40;94.50;;;;;;5071838;28;20043;-67
2022/08/28 05:03:11;;;;;;;18.88;8.98;;;20.30;94.50;;;;;;5072325;28;20032;-67
2022/08/28 05:05:45;;;;;;;18.10;9.55;;;20.30;94.50;;;;;;5071837;28;20024;-67
2022/08/28 05:08:13;;;;;;;17.23;9.48;;;20.40;94.50;;;;;;5070168;28;20618;-67
2022/08/28 05:10:40;;;;;;;15.05;9.88;;;20.30;94.50;;;;;;5071956;28;20021;-67
2022/08/28 05:13:07;;;;;;;15.93;9.20;;;20.30;94.50;;;;;;5072139;28;20070;-67
2022/08/28 05:15:38;;;;;;;15.85;9.05;;;20.30;94.50;;;;;;5071694;28;20501;-67
2022/08/28 05:18:03;;;;;;;19.35;10.35;;;20.30;94.50;;;;;;5072207;28;20021;-67
2022/08/28 05:20:35;;;;;;;17.50;9.73;;;20.30;94.50;;;;;;5072128;28;20103;-67
2022/08/28 05:23:00;;;;;;;20.85;10.10;;;20.40;94.50;;;;;;5072074;28;20039;-67
2022/08/28 05:25:26;;;;;;;15.23;9.18;;;20.40;94.60;;;;;;5034058;28;20024;-67
2022/08/28 05:27:52;;;;;;;16.75;9.30;;;20.30;94.50;;;;;;5052175;28;20083;-67
2022/08/28 05:30:17;;;;;;;15.10;8.68;;;20.30;94.50;;;;;;5051844;28;20420;-67
2022/08/28 05:32:43;;;;;;;16.42;9.05;;;20.30;94.50;;;;;;5052642;28;20032;-67
2022/08/28 05:35:08;;;;;;;17.23;10.13;;;20.30;94.50;;;;;;5051292;28;20028;-67
2022/08/28 05:37:34;;;;;;;14.07;8.32;;;20.30;94.50;;;;;;5051393;28;20517;-67
2022/08/28 05:40:00;;;;;;;21.38;10.15;;;20.40;94.60;;;;;;5056373;28;20072;-67
2022/08/28 05:42:25;;;;;;;17.58;9.75;;;20.40;94.60;;;;;;5068783;28;20268;-67
2022/08/28 05:44:51;;;;;;;17.02;9.82;;;20.30;94.50;;;;;;5071409;28;20028;-68
2022/08/28 05:47:17;;;;;;;16.02;9.48;;;20.40;94.60;;;;;;5071140;28;20032;-67
2022/08/28 05:49:43;;;;;;;14.70;8.85;;;20.40;94.60;;;;;;5070000;28;20021;-67
2022/08/28 05:52:08;;;;;;;19.55;10.57;;;20.30;94.50;;;;;;5070924;28;20055;-67
2022/08/28 05:54:34;;;;;;;18.42;10.20;;;20.40;94.60;;;;;;5062607;28;20052;-67
2022/08/28 05:57:00;;;;;;;19.70;10.48;;;20.30;94.50;;;;;;5062829;28;20485;-67
2022/08/28 05:59:25;;;;;;;18.92;10.00;;;20.30;94.50;;;;;;5060966;28;20029;-67
2022/08/28 06:01:51;;;;;;;19.45;10.35;;;20.40;94.50;;;;;;5038648;28;20036;-67
2022/08/28 06:04:21;;;;;;;18.63;10.48;;;20.40;94.50;;;;;;5061464;28;20028;-67
2022/08/28 06:06:48;;;;;;;22.40;10.13;;;20.40;94.50;;;;;;5056333;28;20024;-67
2022/08/28 06:09:22;;;;;;;25.02;11.43;;;20.40;94.40;;;;;;5064583;28;20035;-67
2022/08/28 06:11:48;;;;;;;26.73;10.75;;;20.40;94.40;;;;;;5051181;28;20363;-67
2022/08/28 06:14:16;;;;;;;25.38;11.18;;;20.50;94.40;;;;;;5050995;28;20036;-67
2022/08/28 06:16:44;;;;;;;22.98;10.43;;;20.50;94.40;;;;;;5050551;28;20382;-67
2022/08/28 07:46:01;;;;;;;14.65;8.93;;;21.00;94.60;;;;;;5061709;28;20463;-67
2022/08/28 07:48:27;;;;;;;18.20;8.32;;;20.90;94.60;;;;;;5069386;28;20039;-67
2022/08/28 08:44:46;;;;;;;16.75;7.80;;;20.90;94.60;;;;;;5073489;28;20055;-67
2022/08/28 08:47:23;;;;;;;16.58;7.85;;;20.90;94.60;;;;;;5071585;28;20040;-67
2022/08/28 08:50:14;;;;;;;15.63;8.50;;;20.90;94.60;;;;;;5072542;28;20366;-67
2022/08/28 08:52:40;;;;;;;13.73;8.50;;;20.90;94.60;;;;;;5069202;28;20054;-67
2022/08/28 08:55:17;;;;;;;16.00;8.18;;;20.90;94.60;;;;;;5051573;28;20025;-67
2022/08/28 08:57:45;;;;;;;14.02;8.05;;;20.90;94.60;;;;;;5072121;28;20095;-67
2022/08/28 09:00:19;;;;;;;13.27;8.95;;;20.90;94.60;;;;;;5071736;28;20040;-67
2022/08/28 09:03:01;;;;;;;18.27;8.63;;;20.90;94.60;;;;;;5071958;28;20040;-67
2022/08/28 09:05:54;;;;;;;16.95;9.48;;;20.90;94.60;;;;;;5071675;28;20594;-67
2022/08/28 09:08:29;;;;;;;16.00;8.80;;;20.90;94.60;;;;;;5072497;28;20139;-67
2022/08/28 09:11:12;;;;;;;15.20;8.85;;;20.90;94.60;;;;;;5067249;28;20076;-67
2022/08/28 09:14:08;;;;;;;12.68;8.32;;;20.90;94.60;;;;;;5052021;28;20078;-67
2022/08/28 09:16:43;;;;;;;10.88;8.02;;;20.90;94.60;;;;;;5051654;28;20033;-67
2022/08/28 09:19:13;;;;;;;16.40;8.80;;;20.90;94.60;;;;;;5052136;28;20061;-67
2022/08/28 09:21:42;;;;;;;13.23;8.75;;;20.90;94.60;;;;;;5052147;28;20029;-67
2022/08/28 09:24:35;;;;;;;16.67;9.82;;;20.90;94.60;;;;;;5055008;28;20025;-67
2022/08/28 09:27:20;;;;;;;18.00;9.52;;;20.90;94.50;;;;;;5056211;28;20032;-67
2022/08/28 09:29:58;;;;;;;21.67;11.20;;;20.90;94.50;;;;;;5051989;28;20218;-67
2022/08/28 09:32:37;;;;;;;18.30;9.98;;;20.90;94.50;;;;;;5051652;28;20029;-67
2022/08/28 09:35:06;;;;;;;15.98;7.90;;;20.90;94.50;;;;;;5050671;28;20033;-67
2022/08/28 09:37:34;;;;;;;20.02;8.60;;;20.90;94.50;;;;;;5051183;28;20486;-67
2022/08/28 09:40:11;;;;;;;13.68;7.07;;;20.90;94.90;;;;;;5051700;28;20111;-67
2022/08/28 09:45:24;;;;;;;14.38;7.38;;;20.90;94.50;;;;;;5070709;28;20075;-68
2022/08/28 09:47:54;;;;;;;11.55;7.63;;;20.90;94.60;;;;;;5070439;28;20028;-69
2022/08/28 09:50:31;;;;;;;13.35;7.75;;;20.90;94.50;;;;;;5071434;28;20119;-69
2022/08/28 09:53:08;;;;;;;14.63;8.60;;;20.90;94.50;;;;;;5071560;28;20029;-69
2022/08/28 09:55:49;;;;;;;14.38;8.27;;;20.90;94.60;;;;;;5066960;28;20052;-70
2022/08/28 09:58:14;;;;;;;12.75;7.47;;;20.90;94.60;;;;;;5063007;28;20262;-69
2022/08/28 10:00:47;;;;;;;12.98;7.47;;;20.90;94.60;;;;;;5051029;28;20029;-68
2022/08/28 10:03:25;;;;;;;11.85;7.20;;;20.90;94.60;;;;;;5051084;28;20390;-69
2022/08/28 10:06:10;;;;;;;15.35;7.93;;;20.90;94.90;;;;;;5050730;28;20055;-68
2022/08/28 10:09:08;;;;;;;14.02;9.27;;;20.90;94.70;;;;;;5050892;28;20035;-69
2022/08/28 10:14:41;;;;;;;18.50;8.57;;;20.90;94.80;;;;;;5091562;23;20044;-65
2022/08/28 10:17:23;;;;;;;16.65;9.18;;;20.90;94.80;;;;;;5069311;28;20090;-65
2022/08/28 10:19:54;;;;;;;16.20;9.65;;;20.90;94.80;;;;;;5071183;28;20135;-65
2022/08/28 10:22:47;;;;;;;19.35;8.40;;;21.00;94.90;;;;;;5071144;28;20028;-65
2022/08/28 10:25:22;;;;;;;18.67;9.38;;;21.00;94.80;;;;;;5070239;28;20034;-64
2022/08/28 10:28:06;;;;;;;19.08;9.93;;;21.00;94.80;;;;;;5075320;28;20032;-65
2022/08/28 10:30:37;;;;;;;20.02;10.45;;;21.00;94.90;;;;;;5072710;28;20066;-65
2022/08/28 10:33:22;;;;;;;18.20;8.57;;;21.00;94.90;;;;;;5091027;28;20500;-65
2022/08/28 10:36:16;;;;;;;17.63;9.82;;;21.00;94.90;;;;;;5089635;28;20021;-66
2022/08/28 10:38:54;;;;;;;18.00;9.98;;;21.00;94.90;;;;;;5091167;28;20108;-65
2022/08/28 10:41:29;;;;;;;16.00;11.32;;;21.10;95.00;;;;;;5091242;28;20068;-65
2022/08/28 10:43:59;;;;;;;20.58;9.80;;;21.00;94.90;;;;;;5075885;28;20115;-66
2022/08/28 10:46:57;;;;;;;22.63;10.45;;;21.10;94.90;;;;;;5071824;28;20500;-66
2022/08/28 10:49:34;;;;;;;17.50;9.82;;;21.10;95.00;;;;;;4969224;28;20046;-65
2022/08/28 10:52:08;;;;;;;19.80;9.93;;;21.10;95.00;;;;;;4969710;28;20417;-65
2022/08/28 10:54:49;;;;;;;17.92;9.02;;;21.10;95.00;;;;;;4969221;28;20102;-66
2022/08/28 10:57:34;;;;;;;12.75;8.60;;;21.10;95.00;;;;;;4968233;28;20023;-66
2022/08/28 11:00:10;;;;;;;15.25;7.97;;;21.10;95.00;;;;;;4950039;29;20493;-65
2022/08/28 11:02:37;;;;;;;16.95;9.60;;;21.10;95.00;;;;;;4950093;29;20045;-65
2022/08/28 11:05:04;;;;;;;15.68;8.93;;;21.10;95.00;;;;;;4949060;29;20035;-66
2022/08/28 11:07:45;;;;;;;22.00;8.20;;;21.10;95.00;;;;;;4949579;29;20134;-66
2022/08/28 11:10:21;;;;;;;19.45;9.52;;;21.10;95.00;;;;;;4966052;28;20032;-65
2022/08/28 11:12:50;;;;;;;16.23;9.43;;;21.20;95.00;;;;;;4935536;28;20118;-65
2022/08/28 11:15:27;;;;;;;13.23;7.93;;;21.10;95.00;;;;;;4968679;28;20511;-65
2022/08/28 11:17:55;;;;;;;17.52;8.73;;;21.20;94.90;;;;;;4969536;28;20039;-66
2022/08/28 11:20:25;;;;;;;17.23;9.70;;;21.20;94.90;;;;;;4968910;28;20491;-66
2022/08/28 11:23:12;;;;;;;15.98;9.55;;;21.20;94.90;;;;;;4968784;28;20023;-65
2022/08/28 11:25:48;;;;;;;13.95;9.55;;;21.20;94.90;;;;;;5003183;28;20041;-66
2022/08/28 11:28:23;;;;;;;15.02;8.23;;;21.20;95.00;;;;;;5054657;28;20064;-66
2022/08/28 11:31:11;;;;;;;15.82;8.40;;;21.20;95.00;;;;;;5051858;28;20508;-66
2022/08/28 11:33:40;;;;;;;15.23;8.82;;;21.20;95.00;;;;;;5069827;28;20027;-65
2022/08/28 11:36:20;;;;;;;17.50;8.10;;;21.20;95.00;;;;;;5069408;28;20020;-65
2022/08/28 11:38:51;;;;;;;12.38;7.97;;;21.20;95.00;;;;;;5069883;28;20497;-65
2022/08/28 11:41:28;;;;;;;14.18;8.15;;;21.20;95.00;;;;;;5069669;28;20029;-66
2022/08/28 11:44:03;;;;;;;20.70;8.98;;;21.20;95.00;;;;;;5068728;28;20363;-65
2022/08/28 11:46:35;;;;;;;16.20;9.43;;;21.20;95.10;;;;;;5069183;28;20074;-65
2022/08/28 11:49:04;;;;;;;12.05;7.32;;;21.20;95.00;;;;;;5073560;28;20056;-65
2022/08/28 11:51:41;;;;;;;14.25;7.68;;;21.20;95.00;;;;;;5073875;28;20099;-65
2022/08/28 11:54:29;;;;;;;16.27;7.53;;;21.20;95.00;;;;;;5073782;28;20107;-66
2022/08/28 11:57:33;;;;;;;12.80;7.70;;;21.20;95.30;;;;;;5055403;28;20060;-65
2022/08/28 12:00:02;;;;;;;13.15;7.72;;;21.20;95.00;;;;;;5011173;28;20071;-66
2022/08/28 12:02:39;;;;;;;11.85;6.60;;;21.20;95.00;;;;;;5035850;28;20021;-66
2022/08/28 12:05:31;;;;;;;9.05;6.63;;;21.20;95.10;;;;;;5035876;28;20063;-65
2022/08/28 12:08:01;;;;;;;9.70;6.13;;;21.10;95.00;;;;;;5053887;28;20029;-66
2022/08/28 12:10:28;;;;;;;12.77;6.55;;;21.20;95.10;;;;;;5054286;28;20047;-65
2022/08/28 12:12:58;;;;;;;10.45;6.20;;;21.20;95.00;;;;;;5053345;28;20282;-68
2022/08/28 12:15:26;;;;;;;9.30;6.18;;;21.20;95.00;;;;;;5070624;28;20036;-67
2022/08/28 12:17:57;;;;;;;11.05;5.80;;;21.20;94.90;;;;;;5073284;28;20540;-67
2022/08/28 12:20:38;;;;;;;13.18;6.45;;;21.20;94.90;;;;;;5072615;28;20478;-67
2022/08/28 12:23:33;;;;;;;9.60;5.88;;;21.20;94.90;;;;;;5073169;28;20047;-67
2022/08/28 12:26:19;;;;;;;13.60;6.32;;;21.20;94.90;;;;;;5062185;28;20396;-67
2022/08/28 12:28:57;;;;;;;9.88;5.47;;;21.20;94.90;;;;;;5053434;28;20505;-67
2022/08/28 12:34:36;;;;;;;12.63;6.00;;;21.20;94.80;;;;;;5073024;28;20045;-67
2022/08/28 12:37:04;;;;;;;11.35;5.65;;;21.20;94.80;;;;;;5072406;28;20024;-67
2022/08/28 12:39:31;;;;;;;9.15;5.72;;;21.30;94.80;;;;;;5072797;28;20055;-67
2022/08/28 12:41:58;;;;;;;8.68;6.18;;;21.30;94.80;;;;;;5072868;28;20029;-67
2022/08/28 12:44:29;;;;;;;10.40;5.82;;;21.30;94.70;;;;;;5071812;28;20508;-67
2022/08/28 12:46:55;;;;;;;11.63;5.82;;;21.30;94.80;;;;;;5072212;28;20033;-67
2022/08/28 12:49:28;;;;;;;10.02;5.88;;;21.30;94.80;;;;;;5072242;28;20021;-67
2022/08/28 12:52:15;;;;;;;7.38;5.25;;;21.20;94.80;;;;;;5073064;28;20032;-67
2022/08/28 12:54:42;;;;;;;8.57;4.90;;;21.30;95.20;;;;;;5072957;28;20035;-67
2022/08/28 12:57:19;;;;;;;6.75;4.05;;;21.30;94.90;;;;;;5072025;28;20159;-67
2022/08/28 12:59:50;;;;;;;5.47;4.20;;;21.20;94.90;;;;;;5070257;28;20024;-67
2022/08/28 13:02:15;;;;;;;;;;;21.30;94.90;;;;;;5073155;28;20059;-67
2022/08/28 13:05:03;;;;;;;6.70;4.90;;;21.20;94.90;;;;;;5072679;28;20357;-67
2022/08/28 13:07:44;;;;;;;9.35;5.03;;;21.30;94.90;;;;;;5070591;28;20036;-66
2022/08/28 13:10:32;;;;;;;7.93;4.68;;;21.20;94.90;;;;;;5071769;28;20155;-67
2022/08/28 13:13:23;;;;;;;6.05;4.28;;;21.30;94.90;;;;;;5072306;28;20028;-67
2022/08/28 13:16:00;;;;;;;8.98;4.93;;;21.20;94.90;;;;;;5030683;28;20133;-67
2022/08/28 13:18:50;;;;;;;9.70;4.88;;;21.20;94.90;;;;;;5061723;28;20028;-66
2022/08/28 13:21:18;;;;;;;9.00;5.35;;;21.30;95.00;;;;;;5072079;28;20036;-67
2022/08/28 13:23:45;;;;;;;7.50;4.82;;;21.30;95.00;;;;;;5072302;28;20082;-67
2022/08/28 13:26:16;;;;;;;8.05;4.57;;;21.30;95.00;;;;;;5071552;28;20060;-68
2022/08/28 13:28:42;;;;;;;7.22;4.68;;;21.20;95.00;;;;;;5070731;28;20432;-67
2022/08/28 13:31:34;;;;;;;7.15;4.82;;;21.20;95.00;;;;;;5071296;28;20021;-67
2022/08/28 13:34:15;;;;;;;8.90;4.90;;;21.20;95.00;;;;;;5071984;28;20032;-67
2022/08/28 13:36:51;;;;;;;6.57;4.20;;;21.20;95.10;;;;;;5071019;28;20024;-67
2022/08/28 13:39:18;;;;;;;6.50;4.45;;;21.20;95.10;;;;;;5071700;28;20029;-67
2022/08/28 13:41:46;;;;;;;6.95;4.47;;;21.20;95.10;;;;;;5071107;28;20054;-67
2022/08/28 13:44:27;;;;;;;5.72;4.35;;;21.20;95.10;;;;;;5070367;28;20089;-67
2022/08/28 13:46:53;;;;;;;6.47;4.82;;;21.20;95.10;;;;;;5071257;28;20481;-67
2022/08/28 13:49:18;;;;;;;5.72;4.40;;;21.20;95.10;;;;;;5072203;28;20025;-67
2022/08/28 13:51:44;;;;;;;8.15;5.60;;;21.20;95.10;;;;;;5071283;28;20032;-67
2022/08/28 13:54:10;;;;;;;6.18;4.05;;;21.20;95.10;;;;;;5071980;28;20021;-67
2022/08/28 13:56:35;;;;;;;6.00;4.55;;;21.20;95.10;;;;;;5071289;28;20034;-67
2022/08/28 13:59:01;;;;;;;6.05;4.38;;;21.20;95.10;;;;;;5070447;28;20023;-67
2022/08/28 14:03:34;;;;;;;7.03;4.18;;;21.20;95.10;;;;;;5073640;28;20111;-67
2022/08/28 14:04:12;;;;;;;10.65;4.00;;;21.20;95.10;;;;;;5091132;28;20032;-68
2022/08/28 14:06:39;;;;;;;10.43;5.88;;;21.20;95.10;;;;;;5090676;28;20032;-67
2022/08/28 14:09:04;;;;;;;8.57;4.63;;;21.20;95.10;;;;;;5091131;28;20062;-67
2022/08/28 14:11:30;;;;;;;13.30;4.70;;;21.20;95.10;;;;;;5090762;28;20028;-67
2022/08/28 14:13:56;;;;;;;5.82;4.20;;;21.20;95.10;;;;;;5091177;28;20052;-67
2022/08/28 14:16:23;;;;;;;7.75;3.75;;;21.20;95.20;;;;;;5068804;28;20478;-67
2022/08/28 14:18:51;;;;;;;8.05;3.67;;;21.20;95.20;;;;;;5070339;28;20032;-67
2022/08/28 14:21:17;;;;;;;6.15;4.45;;;21.20;95.20;;;;;;5070617;28;20037;-67
2022/08/28 14:23:42;;;;;;;11.32;4.47;;;21.20;95.20;;;;;;5070626;28;20028;-68
2022/08/28 14:26:08;;;;;;;5.88;3.97;;;21.20;95.20;;;;;;5069946;28;20029;-67
2022/08/28 14:28:34;;;;;;;5.93;4.57;;;21.20;95.20;;;;;;5070293;28;20029;-67
2022/08/28 14:30:59;;;;;;;9.02;4.25;;;21.20;95.20;;;;;;5069517;28;20024;-67
2022/08/28 14:33:25;;;;;;;8.18;4.25;;;21.20;95.20;;;;;;5070155;28;20099;-67
2022/08/28 14:35:50;;;;;;;11.45;4.78;;;21.10;95.10;;;;;;5069654;28;20050;-67
2022/08/28 14:38:16;;;;;;;10.85;5.05;;;21.20;95.20;;;;;;5070370;28;20027;-67
2022/08/28 14:40:43;;;;;;;9.10;5.28;;;21.20;95.20;;;;;;5070768;28;20032;-67
2022/08/28 14:43:11;;;;;;;9.00;5.35;;;21.10;95.20;;;;;;5071004;28;20029;-67
2022/08/28 14:45:42;;;;;;;9.32;4.72;;;21.20;95.20;;;;;;5068462;28;20028;-67
2022/08/28 14:48:08;;;;;;;8.95;5.60;;;21.10;95.20;;;;;;5070612;28;20032;-67
2022/08/28 14:50:46;;;;;;;11.05;6.30;;;21.20;95.20;;;;;;5070358;28;20068;-67
2022/08/28 14:53:13;;;;;;;10.63;6.90;;;21.20;95.20;;;;;;5069988;28;20161;-67
2022/08/28 14:55:48;;;;;;;11.60;6.80;;;21.10;95.10;;;;;;5069422;28;20024;-67
2022/08/28 14:58:16;;;;;;;11.45;5.82;;;21.20;95.20;;;;;;5070272;28;20681;-67
2022/08/28 15:00:45;;;;;;;12.35;6.35;;;21.10;95.10;;;;;;5068789;28;20051;-67
2022/08/28 15:03:12;;;;;;;9.27;6.03;;;21.20;95.20;;;;;;5069950;28;20589;-67
2022/08/28 15:05:38;;;;;;;12.02;6.22;;;21.10;95.10;;;;;;5089487;28;20068;-67
2022/08/28 15:08:08;;;;;;;9.88;6.97;;;21.20;95.10;;;;;;5090116;28;20039;-67
2022/08/28 15:10:37;;;;;;;9.73;6.20;;;21.10;95.10;;;;;;5090297;28;20047;-67
2022/08/28 15:13:03;;;;;;;7.10;5.32;;;21.10;95.10;;;;;;5072015;28;20421;-67
2022/08/28 15:15:29;;;;;;;8.32;6.15;;;21.10;95.40;;;;;;5079526;28;20037;-67
2022/08/28 15:17:56;;;;;;;9.38;5.80;;;21.20;95.10;;;;;;5069906;28;20033;-67
2022/08/28 15:20:21;;;;;;;8.70;5.88;;;21.20;95.10;;;;;;5069940;28;20032;-67
2022/08/28 15:22:47;;;;;;;10.57;6.63;;;21.10;95.10;;;;;;5069774;28;20027;-67
2022/08/28 15:25:12;;;;;;;17.45;6.00;;;21.10;95.00;;;;;;5069044;28;20062;-67
2022/08/28 15:27:38;;;;;;;10.15;6.57;;;21.10;95.10;;;;;;5069501;28;20024;-67
2022/08/28 15:30:05;;;;;;;13.10;6.25;;;21.10;95.10;;;;;;5068942;28;20094;-67
2022/08/28 15:32:31;;;;;;;10.50;5.57;;;21.10;95.00;;;;;;5051689;28;20048;-67
2022/08/28 15:34:56;;;;;;;10.40;7.00;;;21.10;95.00;;;;;;5069462;28;20540;-67
2022/08/28 15:37:22;;;;;;;10.85;5.88;;;21.10;95.00;;;;;;5069491;28;20104;-67
2022/08/28 15:42:31;;;;;;;9.35;6.38;;;21.10;95.00;;;;;;5069978;28;20039;-67
2022/08/28 15:44:57;;;;;;;8.70;5.82;;;21.10;95.00;;;;;;5068455;28;20103;-67
2022/08/28 15:47:23;;;;;;;10.48;6.00;;;21.10;95.00;;;;;;5069483;28;20032;-67
2022/08/28 15:49:54;;;;;;;15.43;6.07;;;21.10;95.00;;;;;;5068401;28;20023;-67
2022/08/28 15:52:20;;;;;;;15.85;5.82;;;21.10;95.00;;;;;;5069387;28;20052;-67
2022/08/28 15:54:47;;;;;;;8.00;5.47;;;21.10;95.00;;;;;;5069054;28;20059;-67
2022/08/28 15:57:13;;;;;;;8.95;5.63;;;21.10;95.10;;;;;;5069377;28;20439;-67
2022/08/28 15:59:38;;;;;;;10.95;6.47;;;21.10;95.10;;;;;;5069600;28;20083;-67
2022/08/28 16:02:04;;;;;;;9.60;5.40;;;21.10;95.00;;;;;;5050454;28;20033;-67
2022/08/28 16:04:30;;;;;;;6.75;5.15;;;21.10;95.00;;;;;;5069776;28;20037;-67
2022/08/28 16:06:56;;;;;;;13.60;5.72;;;21.10;95.00;;;;;;5050268;28;20078;-67
2022/08/28 16:09:22;;;;;;;13.00;5.95;;;21.10;95.00;;;;;;5069676;28;20036;-67
2022/08/28 16:11:47;;;;;;;7.82;5.38;;;21.10;95.00;;;;;;5069154;28;20020;-67
2022/08/28 16:14:13;;;;;;;10.88;5.05;;;21.10;95.00;;;;;;5069350;28;20032;-67
2022/08/28 16:16:39;;;;;;;8.20;4.97;;;21.10;95.00;;;;;;5066912;28;20398;-67
2022/08/28 16:19:04;;;;;;;9.40;4.70;;;21.10;95.00;;;;;;5069295;28;20025;-67
2022/08/28 16:21:30;;;;;;;6.22;4.35;;;21.10;95.00;;;;;;5069023;28;20539;-67
2022/08/28 16:23:56;;;;;;;8.27;5.30;;;21.10;95.00;;;;;;5051131;28;20124;-67
2022/08/28 16:26:22;;;;;;;7.65;4.68;;;21.10;95.00;;;;;;5068527;28;20074;-67
2022/08/28 16:28:48;;;;;;;8.60;4.68;;;21.10;94.90;;;;;;5069301;28;20028;-67
2022/08/28 16:31:14;;;;;;;6.82;4.95;;;21.10;94.90;;;;;;5075048;28;20085;-67
2022/08/28 16:33:40;;;;;;;7.30;5.20;;;21.10;94.90;;;;;;5091174;28;20028;-67
2022/08/28 16:36:12;;;;;;;9.15;5.50;;;21.10;94.90;;;;;;5092036;28;20028;-67